Time;durP1;ratioP1;P1;durP2;ratioP2;P2;SDS_P1;SDS_P2;PMS_P1;PMS_P2;Temp;Humidity;BMP_temperature;BMP_pressure;BME280_temperature;BME280_humidity;BME280_pressure;Samples;Min_cycle;Max_cycle;Signal;HPM_P1;HPM_P2
2023/01/10 00:00:17;;;;;;;0.60;0.60;;;;;;;3.62;93.48;96552.25;29395;224;63007;-60
2023/01/10 00:00:48;;;;;;;0.60;0.60;;;;;;;3.62;93.22;96551.44;29395;326;63009;-59
2023/01/10 00:01:19;;;;;;;0.60;0.60;;;;;;;3.59;93.16;96546.59;29394;208;64009;-57
2023/01/10 00:01:51;;;;;;;0.50;0.50;;;;;;;3.57;93.44;96551.41;29395;212;63008;-58
2023/01/10 00:02:22;;;;;;;0.60;0.60;;;;;;;3.55;93.36;96556.22;29395;208;63005;-59
2023/01/10 00:02:54;;;;;;;0.60;0.60;;;;;;;3.53;93.48;96551.09;29394;219;64014;-58
2023/01/10 00:03:25;;;;;;;0.60;0.60;;;;;;;3.53;93.68;96558.34;29395;203;63009;-58
2023/01/10 00:03:56;;;;;;;0.60;0.60;;;;;;;3.54;93.91;96563.47;29395;197;63009;-60
2023/01/10 00:04:28;;;;;;;0.60;0.60;;;;;;;3.57;93.62;96554.91;29395;211;63005;-59
2023/01/10 00:05:00;;;;;;;0.57;0.57;;;;;;;3.58;93.53;96561.06;29394;323;64013;-60
2023/01/10 00:05:31;;;;;;;0.60;0.60;;;;;;;3.58;93.27;96555.72;29395;236;63005;-69
2023/01/10 00:06:03;;;;;;;0.60;0.60;;;;;;;3.57;93.46;96560.25;29395;237;63009;-60
2023/01/10 00:06:34;;;;;;;0.60;0.60;;;;;;;3.56;93.25;96553.28;29395;201;63004;-60
2023/01/10 00:07:06;;;;;;;0.60;0.60;;;;;;;3.55;93.27;96557.03;29395;239;63009;-58
2023/01/10 00:07:37;;;;;;;0.60;0.60;;;;;;;3.55;93.28;96558.91;29395;204;63004;-58
2023/01/10 00:08:13;;;;;;;0.60;0.60;;;;;;;3.56;93.38;96557.84;29395;199;63008;-59
2023/01/10 00:08:44;;;;;;;0.60;0.60;;;;;;;3.57;93.53;96556.78;29395;204;63015;-59
2023/01/10 00:09:15;;;;;;;0.60;0.60;;;;;;;3.56;93.51;96564.00;29395;202;63008;-59
2023/01/10 00:09:46;;;;;;;0.60;0.60;;;;;;;3.57;93.66;96562.13;29395;322;63004;-62
2023/01/10 00:10:18;;;;;;;0.60;0.60;;;;;;;3.56;93.12;96561.31;29394;228;64014;-59
2023/01/10 00:10:49;;;;;;;0.60;0.60;;;;;;;3.55;93.04;96558.91;29395;203;63018;-59
2023/01/10 00:13:55;;;;;;;0.60;0.60;;;;;;;3.55;93.60;96561.59;29395;213;63004;-58
2023/01/10 00:14:28;;;;;;;0.60;0.60;;;;;;;3.53;93.93;96563.72;29395;236;63009;-59
2023/01/10 00:14:59;;;;;;;0.60;0.60;;;;;;;3.52;93.78;96562.09;29395;222;63004;-59
2023/01/10 00:15:32;;;;;;;0.60;0.60;;;;;;;3.52;93.95;96568.25;29395;208;63009;-59
2023/01/10 00:16:08;;;;;;;0.60;0.60;;;;;;;3.53;93.84;96569.06;29394;236;64008;-59
2023/01/10 00:16:41;;;;;;;0.60;0.60;;;;;;;3.54;94.20;96570.69;29395;239;63009;-58
2023/01/10 00:17:12;;;;;;;0.60;0.60;;;;;;;3.51;93.72;96571.19;29394;386;64009;-58
2023/01/10 00:17:44;;;;;;;0.60;0.60;;;;;;;3.51;93.55;96565.84;29395;226;63009;-59
2023/01/10 00:18:15;;;;;;;0.60;0.60;;;;;;;3.51;93.68;96569.34;29395;202;63005;-58
2023/01/10 00:18:46;;;;;;;0.60;0.60;;;;;;;3.50;93.96;96569.59;29394;378;64013;-58
2023/01/10 00:19:17;;;;;;;0.60;0.60;;;;;;;3.48;94.14;96577.88;29395;218;63005;-60
2023/01/10 00:19:48;;;;;;;0.60;0.60;;;;;;;3.48;94.29;96577.06;29395;225;63009;-58
2023/01/10 00:20:20;;;;;;;0.60;0.60;;;;;;;3.46;94.42;96574.69;29395;216;63005;-59
2023/01/10 00:20:51;;;;;;;0.60;0.60;;;;;;;3.48;94.53;96577.88;29394;238;64013;-59
2023/01/10 00:21:22;;;;;;;0.60;0.60;;;;;;;3.48;94.58;96572.53;29395;223;63004;-59
2023/01/10 00:21:54;;;;;;;0.60;0.60;;;;;;;3.50;94.77;96574.94;29395;234;63009;-58
2023/01/10 00:22:26;;;;;;;0.50;0.50;;;;;;;3.50;94.62;96569.59;29394;306;64009;-59
2023/01/10 00:22:57;;;;;;;0.60;0.60;;;;;;;3.50;94.50;96572.25;29395;226;63009;-58
2023/01/10 00:23:28;;;;;;;0.60;0.60;;;;;;;3.50;94.62;96572.25;29395;302;63004;-58
2023/01/10 00:24:07;;;;;;;0.50;0.50;;;;;;;3.49;94.47;96579.50;29395;207;63008;-60
2023/01/10 00:24:41;;;;;;;0.50;0.50;;;;;;;3.50;94.61;96572.25;29395;201;63005;-60
2023/01/10 00:25:12;;;;;;;0.50;0.50;;;;;;;3.59;94.24;96579.59;29395;239;63009;-60
2023/01/10 00:25:43;;;;;;;0.60;0.60;;;;;;;3.60;93.60;96581.22;29395;312;63005;-58
2023/01/10 00:26:18;;;;;;;0.60;0.60;;;;;;;3.59;93.37;96576.09;29395;213;63009;-58
2023/01/10 00:26:50;;;;;;;0.57;0.57;;;;;;;3.54;93.66;96586.78;29395;228;63005;-59
2023/01/10 00:27:25;;;;;;;0.60;0.60;;;;;;;3.52;93.70;96578.19;29394;234;64013;-60
2023/01/10 00:28:45;;;;;;;0.60;0.60;;;;;;;3.72;92.91;96583.72;29395;203;63009;-63
2023/01/10 00:29:22;;;;;;;0.50;0.50;;;;;;;3.80;92.16;96575.22;29395;271;63004;-61
2023/01/10 00:29:53;;;;;;;0.60;0.60;;;;;;;3.84;91.86;96580.84;29394;214;64013;-62
2023/01/10 00:30:24;;;;;;;0.60;0.60;;;;;;;3.82;91.66;96575.75;29395;203;63004;-58
2023/01/10 00:31:05;;;;;;;0.60;0.60;;;;;;;3.77;91.87;96586.47;29395;220;63008;-60
2023/01/10 00:31:36;;;;;;;0.60;0.60;;;;;;;3.74;92.03;96588.84;29417;202;63005;-61
2023/01/10 00:32:07;;;;;;;0.60;0.60;;;;;;;3.72;92.30;96591.78;29395;202;63009;-64
2023/01/10 00:32:44;;;;;;;0.60;0.60;;;;;;;3.75;92.59;96593.97;29395;227;63011;-61
2023/01/10 00:33:18;;;;;;;0.60;0.60;;;;;;;3.79;92.31;96595.06;29395;319;63009;-59
2023/01/10 00:33:50;;;;;;;0.60;0.60;;;;;;;3.81;92.28;96592.91;29395;287;63005;-59
2023/01/10 00:34:21;;;;;;;0.60;0.60;;;;;;;3.78;92.12;96593.44;29395;314;63009;-58
2023/01/10 00:34:53;;;;;;;0.60;0.60;;;;;;;3.75;92.10;96588.59;29394;215;64009;-60
2023/01/10 00:35:25;;;;;;;0.60;0.60;;;;;;;3.73;92.48;96600.66;29395;256;63009;-59
2023/01/10 00:35:58;;;;;;;0.60;0.60;;;;;;;3.69;92.30;96594.97;29395;275;63004;-60
2023/01/10 00:36:29;;;;;;;0.60;0.60;;;;;;;3.67;92.80;96597.09;29395;308;63009;-60
2023/01/10 00:37:02;;;;;;;0.60;0.60;;;;;;;3.66;92.74;96598.16;29395;268;63004;-58
2023/01/10 00:37:33;;;;;;;0.60;0.60;;;;;;;3.62;93.00;96602.44;29395;258;63009;-59
2023/01/10 00:38:04;;;;;;;0.60;0.60;;;;;;;3.61;93.01;96600.81;29395;204;63004;-60
2023/01/10 00:38:38;;;;;;;0.60;0.60;;;;;;;3.60;93.35;96602.69;29395;321;63008;-61
2023/01/10 00:39:10;;;;;;;0.60;0.60;;;;;;;3.60;93.68;96610.72;29395;255;63005;-59
2023/01/10 00:39:41;;;;;;;0.60;0.60;;;;;;;3.58;93.76;96604.00;29395;197;63009;-60
2023/01/10 00:40:14;;;;;;;0.60;0.60;;;;;;;3.57;93.55;96605.06;29394;239;64009;-59
2023/01/10 00:40:46;;;;;;;0.60;0.60;;;;;;;3.55;94.04;96604.50;29395;218;63009;-59
2023/01/10 00:43:55;;;;;;;0.60;0.60;;;;;;;3.53;94.52;96609.31;29395;326;63009;-60
2023/01/10 00:44:27;;;;;;;0.60;0.60;;;;;;;3.51;94.30;96608.75;29395;205;63004;-58
2023/01/10 00:45:02;;;;;;;0.60;0.60;;;;;;;3.49;94.35;96608.19;29395;269;63009;-58
2023/01/10 00:45:33;;;;;;;0.60;0.60;;;;;;;3.47;94.55;96613.81;29394;232;64009;-65
2023/01/10 00:46:05;;;;;;;0.60;0.60;;;;;;;3.51;94.82;96614.12;29395;227;63008;-62
2023/01/10 00:46:36;;;;;;;0.60;0.60;;;;;;;3.51;95.03;96620.31;29395;319;63004;-58
2023/01/10 00:47:08;;;;;;;0.60;0.60;;;;;;;3.51;94.93;96608.75;29395;199;63009;-58
2023/01/10 00:47:39;;;;;;;0.60;0.60;;;;;;;3.49;94.76;96616.25;29395;305;63005;-58
2023/01/10 00:48:12;;;;;;;0.60;0.60;;;;;;;3.47;94.77;96618.38;29395;203;63009;-60
2023/01/10 00:48:44;;;;;;;0.60;0.60;;;;;;;3.50;94.99;96617.87;29395;209;63005;-60
2023/01/10 00:49:16;;;;;;;0.57;0.57;;;;;;;3.52;94.96;96616.56;29395;222;63009;-59
2023/01/10 00:49:48;;;;;;;0.60;0.60;;;;;;;3.54;94.73;96613.62;29394;237;64009;-58
2023/01/10 00:50:19;;;;;;;0.60;0.60;;;;;;;3.51;94.70;96614.94;29395;218;63009;-60
2023/01/10 00:50:50;;;;;;;0.60;0.60;;;;;;;3.52;94.81;96621.91;29395;216;63005;-60
2023/01/10 00:51:22;;;;;;;0.60;0.60;;;;;;;3.57;94.44;96618.47;29395;208;63017;-58
2023/01/10 00:51:57;;;;;;;0.60;0.60;;;;;;;3.55;94.12;96613.38;29394;239;64009;-59
2023/01/10 00:52:28;;;;;;;0.60;0.60;;;;;;;3.55;94.02;96615.22;29395;203;63018;-59
2023/01/10 00:52:59;;;;;;;0.60;0.60;;;;;;;3.53;94.11;96618.16;29395;202;63010;-61
2023/01/10 00:53:30;;;;;;;0.60;0.60;;;;;;;3.51;94.27;96624.84;29395;222;63008;-58
2023/01/10 00:54:02;;;;;;;0.60;0.60;;;;;;;3.52;94.48;96621.09;29395;394;63004;-59
2023/01/10 00:54:34;;;;;;;0.60;0.60;;;;;;;3.60;94.40;96628.69;29395;276;63009;-61
2023/01/10 00:55:07;;;;;;;0.60;0.60;;;;;;;3.69;93.49;96629.88;29395;202;63005;-61
2023/01/10 00:55:39;;;;;;;0.60;0.60;;;;;;;3.74;93.38;96627.22;29395;206;63009;-59
2023/01/10 00:56:10;;;;;;;0.60;0.60;;;;;;;3.73;92.92;96625.59;29395;278;63005;-62
2023/01/10 00:56:41;;;;;;;0.60;0.60;;;;;;;3.70;92.82;96628.78;29395;199;63009;-60
2023/01/10 00:57:13;;;;;;;1.40;1.40;;;;;;;3.70;93.21;96623.44;29394;209;64002;-60
2023/01/10 00:57:44;;;;;;;0.55;0.55;;;;;;;3.71;93.12;96627.72;29395;214;63009;-59
2023/01/10 00:58:16;;;;;;;0.60;0.60;;;;;;;3.66;93.26;96633.88;29395;236;63004;-59
2023/01/10 00:58:47;;;;;;;0.60;0.60;;;;;;;3.61;93.49;96631.13;29395;240;63018;-59
2023/01/10 00:59:18;;;;;;;0.60;0.60;;;;;;;3.57;93.81;96621.16;29395;216;63004;-58
2023/01/10 00:59:52;;;;;;;0.60;0.60;;;;;;;3.52;94.37;96627.28;29395;219;63019;-58
2023/01/10 01:00:23;;;;;;;0.57;0.57;;;;;;;3.50;94.25;96633.97;29395;208;63004;-59
2023/01/10 01:00:55;;;;;;;0.60;0.60;;;;;;;3.52;94.92;96629.16;29395;212;63008;-58
2023/01/10 01:01:26;;;;;;;0.60;0.60;;;;;;;3.52;94.64;96626.47;29395;215;63004;-58
2023/01/10 01:01:58;;;;;;;0.60;0.60;;;;;;;3.49;94.82;96626.97;29395;230;63009;-59
2023/01/10 01:02:29;;;;;;;0.60;0.60;;;;;;;3.46;94.97;96631.00;29394;211;64009;-61
2023/01/10 01:03:01;;;;;;;0.60;0.60;;;;;;;3.47;94.99;96631.78;29395;220;63009;-60
2023/01/10 01:03:33;;;;;;;0.68;0.68;;;;;;;3.47;95.01;96631.78;29395;230;63014;-60
2023/01/10 01:04:05;;;;;;;0.60;0.60;;;;;;;3.50;95.31;96636.66;29395;210;63009;-62
2023/01/10 01:04:36;;;;;;;0.60;0.60;;;;;;;3.54;94.93;96635.06;29395;216;63005;-69
2023/01/10 01:05:08;;;;;;;0.60;0.60;;;;;;;3.52;94.72;96632.66;29395;327;63009;-59
2023/01/10 01:05:44;;;;;;;0.60;0.60;;;;;;;3.51;94.68;96631.03;29395;197;63004;-59
2023/01/10 01:06:15;;;;;;;0.60;0.60;;;;;;;3.51;94.87;96632.91;29395;338;63009;-59
2023/01/10 01:06:47;;;;;;;0.60;0.60;;;;;;;3.57;94.98;96634.56;29395;220;63004;-60
2023/01/10 01:07:19;;;;;;;0.60;0.60;;;;;;;3.58;94.69;96638.88;29395;207;63009;-59
2023/01/10 01:07:51;;;;;;;0.60;0.60;;;;;;;3.58;94.75;96641.56;29394;230;64008;-60
2023/01/10 01:08:22;;;;;;;0.60;0.60;;;;;;;3.57;94.77;96645.31;29395;295;63008;-60
2023/01/10 01:08:54;;;;;;;0.60;0.60;;;;;;;3.62;94.75;96640.78;29395;210;63005;-59
2023/01/10 01:09:25;;;;;;;0.60;0.60;;;;;;;3.61;94.38;96641.06;29395;222;63009;-60
2023/01/10 01:10:46;;;;;;;0.60;0.60;;;;;;;3.55;94.87;96652.78;29395;210;63009;-60
2023/01/10 01:11:17;;;;;;;0.60;0.60;;;;;;;3.58;95.05;96653.09;29395;230;63007;-62
2023/01/10 01:11:49;;;;;;;0.60;0.60;;;;;;;3.66;94.66;96655.31;29395;239;63009;-62
2023/01/10 01:12:20;;;;;;;0.60;0.60;;;;;;;3.71;93.95;96651.88;29395;320;63005;-58
2023/01/10 01:12:57;;;;;;;0.60;0.60;;;;;;;3.69;93.60;96654.00;29394;206;64013;-61
2023/01/10 01:13:28;;;;;;;0.60;0.60;;;;;;;3.64;93.64;96652.09;29395;399;63004;-61
2023/01/10 01:13:59;;;;;;;0.60;0.60;;;;;;;3.66;93.91;96662.56;29395;222;63019;-60
2023/01/10 01:14:38;;;;;;;0.50;0.50;;;;;;;3.64;93.98;96654.78;29395;206;63004;-60
2023/01/10 01:15:12;;;;;;;0.60;0.60;;;;;;;3.63;94.24;96657.72;29395;204;63009;-61
2023/01/10 01:15:44;;;;;;;0.60;0.60;;;;;;;3.64;94.41;96649.41;29395;245;63004;-58
2023/01/10 01:16:16;;;;;;;0.60;0.60;;;;;;;3.64;94.47;96648.59;29395;228;63009;-58
2023/01/10 01:16:47;;;;;;;0.60;0.60;;;;;;;3.62;94.36;96656.09;29395;224;63005;-59
2023/01/10 01:17:18;;;;;;;0.60;0.60;;;;;;;3.59;94.71;96651.22;29395;204;63009;-60
2023/01/10 01:17:50;;;;;;;0.60;0.60;;;;;;;3.57;94.71;96656.03;29395;234;63005;-59
2023/01/10 01:18:21;;;;;;;0.60;0.60;;;;;;;3.55;94.80;96658.97;29394;214;64013;-60
2023/01/10 01:18:53;;;;;;;0.60;0.60;;;;;;;3.53;95.10;96660.28;29395;229;63005;-59
2023/01/10 01:19:24;;;;;;;0.60;0.60;;;;;;;3.52;95.02;96661.34;29395;296;63009;-60
2023/01/10 01:19:56;;;;;;;0.60;0.60;;;;;;;3.54;95.11;96662.72;29395;279;63005;-58
2023/01/10 01:20:27;;;;;;;0.60;0.60;;;;;;;3.54;95.42;96657.34;29395;221;63009;-61
2023/01/10 01:21:02;;;;;;;0.60;0.60;;;;;;;3.54;95.01;96667.28;29395;202;63004;-61
2023/01/10 01:21:34;;;;;;;0.60;0.60;;;;;;;3.59;95.27;96667.31;29395;203;63009;-59
2023/01/10 01:22:06;;;;;;;0.60;0.60;;;;;;;3.60;94.92;96668.94;29395;224;63004;-60
2023/01/10 01:22:37;;;;;;;0.60;0.60;;;;;;;3.72;94.73;96666.09;29395;225;63009;-62
2023/01/10 01:23:09;;;;;;;0.52;0.52;;;;;;;3.79;93.93;96670.22;29395;258;63004;-60
2023/01/10 01:23:41;;;;;;;0.60;0.60;;;;;;;3.81;93.69;96672.63;29394;206;64014;-63
2023/01/10 01:24:12;;;;;;;0.60;0.60;;;;;;;3.82;93.28;96672.34;29395;224;63010;-61
2023/01/10 01:24:43;;;;;;;0.60;0.60;;;;;;;3.80;93.39;96677.19;29395;197;63009;-61
2023/01/10 01:25:15;;;;;;;0.60;0.60;;;;;;;3.81;93.26;96672.63;29395;198;63005;-60
2023/01/10 01:25:52;;;;;;;0.60;0.60;;;;;;;3.84;93.22;96674.78;29395;210;63009;-58
2023/01/10 01:26:24;;;;;;;0.60;0.60;;;;;;;3.95;92.27;96685.37;29395;236;63005;-62
2023/01/10 01:26:55;;;;;;;0.60;0.60;;;;;;;3.98;91.75;96673.31;29395;346;63009;-64
2023/01/10 01:27:26;;;;;;;0.60;0.60;;;;;;;4.01;91.49;96683.53;29395;214;63005;-60
2023/01/10 01:27:58;;;;;;;0.60;0.60;;;;;;;4.08;91.03;96683.34;29394;220;64013;-64
2023/01/10 01:28:29;;;;;;;0.60;0.60;;;;;;;4.16;90.44;96682.88;29395;207;63004;-60
2023/01/10 01:29:00;;;;;;;0.60;0.60;;;;;;;4.15;90.27;96683.94;29395;208;63009;-62
2023/01/10 01:29:32;;;;;;;0.60;0.60;;;;;;;4.21;90.11;96686.37;29395;210;63004;-66
2023/01/10 01:30:08;;;;;;;0.60;0.60;;;;;;;4.27;89.86;96687.22;29395;254;63009;-66
2023/01/10 01:30:40;;;;;;;0.55;0.55;;;;;;;4.30;89.17;96686.72;29395;216;63004;-61
2023/01/10 01:31:12;;;;;;;0.60;0.60;;;;;;;4.30;89.21;96687.53;29395;209;63009;-61
2023/01/10 01:31:43;;;;;;;0.60;0.60;;;;;;;4.31;89.01;96688.31;29395;221;63005;-63
2023/01/10 01:32:14;;;;;;;0.60;0.60;;;;;;;4.28;89.02;96694.22;29395;202;63009;-63
2023/01/10 01:32:45;;;;;;;0.60;0.60;;;;;;;4.29;88.82;96690.47;29395;314;63010;-63
2023/01/10 01:33:17;;;;;;;1.80;0.75;;;;;;;4.25;88.74;96692.84;29394;238;64013;-63
2023/01/10 01:33:50;;;;;;;0.60;0.60;;;;;;;4.26;88.53;96694.47;29395;370;63005;-64
2023/01/10 01:34:22;;;;;;;0.60;0.60;;;;;;;4.27;88.61;96697.97;29395;224;63009;-60
2023/01/10 01:34:53;;;;;;;0.60;0.60;;;;;;;4.30;88.24;96697.44;29395;312;63005;-70
2023/01/10 01:35:26;;;;;;;0.60;0.60;;;;;;;4.32;88.42;96706.06;29395;280;63009;-65
2023/01/10 01:35:57;;;;;;;0.65;0.65;;;;;;;4.34;88.16;96701.25;29395;238;63004;-64
2023/01/10 01:36:28;;;;;;;0.60;0.60;;;;;;;4.31;88.30;96696.38;29395;199;63009;-63
2023/01/10 01:36:59;;;;;;;0.60;0.60;;;;;;;4.32;88.26;96692.63;29395;210;63004;-63
2023/01/10 01:37:32;;;;;;;0.60;0.60;;;;;;;4.31;88.61;96704.44;29395;204;63009;-63
2023/01/10 01:38:03;;;;;;;0.60;0.60;;;;;;;4.29;88.86;96707.38;29395;202;63009;-62
2023/01/10 01:38:36;;;;;;;0.60;0.60;;;;;;;4.26;88.89;96709.78;29394;225;64013;-61
2023/01/10 01:39:07;;;;;;;0.60;0.60;;;;;;;4.25;89.25;96705.47;29395;197;63005;-66
2023/01/10 01:39:39;;;;;;;0.60;0.60;;;;;;;4.23;89.50;96704.91;29395;240;63009;-69
2023/01/10 01:40:15;;;;;;;0.60;0.60;;;;;;;4.24;89.45;96703.84;29395;230;63005;-59
2023/01/10 01:40:46;;;;;;;0.60;0.60;;;;;;;4.23;89.70;96712.97;29395;218;63009;-63
2023/01/10 01:42:26;;;;;;;0.60;0.60;;;;;;;4.16;90.35;96712.41;29395;210;63009;-69
2023/01/10 01:42:58;;;;;;;0.60;0.60;;;;;;;4.16;89.91;96704.34;29417;222;63004;-56
2023/01/10 01:43:30;;;;;;;0.60;0.60;;;;;;;4.20;89.62;96710.78;29395;348;63009;-56
2023/01/10 01:44:06;;;;;;;0.70;0.70;;;;;;;4.20;89.55;96708.91;29394;223;64009;-65
2023/01/10 01:44:41;;;;;;;0.60;0.60;;;;;;;4.19;89.87;96706.50;29395;202;63015;-61
2023/01/10 01:45:39;;;;;;;0.60;0.60;;;;;;;4.09;90.03;96707.25;29395;221;63004;-62
2023/01/10 01:46:10;;;;;;;0.60;0.60;;;;;;;4.08;90.43;96707.50;29395;220;63008;-61
2023/01/10 01:46:45;;;;;;;0.62;0.62;;;;;;;4.03;90.31;96711.75;29395;211;63005;-62
2023/01/10 01:47:27;;;;;;;0.60;0.60;;;;;;;4.00;91.10;96708.75;29394;203;64014;-62
2023/01/10 01:48:19;;;;;;;1.12;1.12;;;;;;;4.04;90.31;96710.69;29395;240;63005;-66
2023/01/10 01:48:50;;;;;;;0.60;0.60;;;;;;;4.08;90.19;96711.00;29395;255;63009;-65
2023/01/10 01:49:23;;;;;;;0.60;0.60;;;;;;;4.12;89.92;96716.66;29394;210;64009;-62
2023/01/10 01:49:55;;;;;;;0.60;0.60;;;;;;;4.12;89.38;96720.16;29394;287;64013;-69
2023/01/10 01:50:50;;;;;;;0.60;0.60;;;;;;;4.11;89.70;96725.78;29395;282;63004;-61
2023/01/10 01:51:25;;;;;;;0.60;0.60;;;;;;;4.09;90.10;96733.28;29395;243;63009;-63
2023/01/10 01:52:02;;;;;;;0.60;0.60;;;;;;;4.02;90.44;96726.25;29395;234;63004;-63
2023/01/10 01:52:36;;;;;;;0.60;0.60;;;;;;;4.08;90.25;96721.72;29395;221;63014;-65
2023/01/10 01:53:27;;;;;;;0.60;0.60;;;;;;;4.03;89.76;96725.19;29395;205;63015;-61
2023/01/10 01:54:04;;;;;;;0.60;0.60;;;;;;;4.06;89.85;96728.41;29417;204;63009;-62
2023/01/10 01:54:36;;;;;;;0.65;0.65;;;;;;;4.04;90.03;96737.53;29394;212;64009;-60
2023/01/10 01:55:09;;;;;;;0.60;0.60;;;;;;;4.09;89.78;96744.03;29395;196;63009;-63
2023/01/10 01:55:43;;;;;;;0.50;0.50;;;;;;;4.11;89.50;96739.22;29395;236;63005;-57
2023/01/10 01:56:33;;;;;;;0.60;0.60;;;;;;;4.10;89.09;96743.75;29395;197;63009;-63
2023/01/10 01:57:12;;;;;;;0.60;0.60;;;;;;;4.13;89.00;96737.88;29395;214;63005;-64
2023/01/10 01:57:45;;;;;;;0.60;0.60;;;;;;;4.10;89.24;96738.41;29394;239;64013;-60
2023/01/10 01:58:20;;;;;;;0.60;0.60;;;;;;;4.04;89.83;96742.91;29395;204;63009;-63
2023/01/10 01:59:15;;;;;;;0.60;0.60;;;;;;;4.06;89.97;96741.84;29395;244;63009;-61
2023/01/10 01:59:51;;;;;;;0.60;0.60;;;;;;;4.06;89.49;96744.53;29395;211;63004;-63
2023/01/10 02:00:23;;;;;;;0.60;0.60;;;;;;;4.11;89.51;96748.06;29373;196;63008;-67
2023/01/10 02:00:57;;;;;;;0.80;0.80;;;;;;;4.10;89.34;96748.31;29395;226;63005;-59
2023/01/10 02:01:30;;;;;;;0.60;0.60;;;;;;;4.09;89.20;96747.50;29395;205;63009;-65
2023/01/10 02:02:14;;;;;;;0.60;0.60;;;;;;;4.11;88.54;96748.06;29394;197;64009;-70
2023/01/10 02:02:50;;;;;;;0.60;0.60;;;;;;;4.10;88.69;96741.09;29395;253;63015;-58
2023/01/10 02:03:21;;;;;;;0.60;0.60;;;;;;;4.11;88.41;96753.44;29395;228;63005;-58
2023/01/10 02:03:58;;;;;;;0.65;0.65;;;;;;;4.10;88.63;96745.63;29395;202;63009;-62
2023/01/10 02:04:41;;;;;;;0.60;0.60;;;;;;;4.11;88.96;96741.88;29395;267;63005;-61
2023/01/10 02:05:15;;;;;;;0.60;0.60;;;;;;;4.07;88.86;96740.78;29394;322;64009;-59
2023/01/10 02:05:47;;;;;;;0.60;0.60;;;;;;;4.00;89.19;96744.47;29373;212;63004;-58
2023/01/10 02:06:22;;;;;;;0.57;0.57;;;;;;;4.02;89.41;96744.22;29395;331;63009;-58
2023/01/10 03:35:02;;;;;;;0.60;0.60;;;;;;;3.48;91.22;96928.47;29372;197;64009;-59
2023/01/10 03:37:12;;;;;;;0.84;0.78;;;;;;;3.41;91.61;96930.53;88172;216;64004;-58
2023/01/10 03:37:55;;;;;;;0.60;0.60;;;;;;;3.40;92.05;96936.97;29394;350;64009;-60
2023/01/10 03:38:56;;;;;;;0.60;0.60;;;;;;;3.43;91.78;96939.16;29373;240;63005;-63
2023/01/10 03:39:39;;;;;;;0.68;0.68;;;;;;;3.48;91.68;96947.25;29373;314;63009;-61
2023/01/10 03:40:35;;;;;;;1.05;1.05;;;;;;;3.49;91.37;96940.81;29373;270;63009;-63
2023/01/10 03:41:29;;;;;;;0.60;0.60;;;;;;;3.47;91.54;96940.25;29371;307;64013;-63
2023/01/10 03:44:54;;;;;;;0.70;0.70;;;;;;;3.46;91.71;96954.75;29395;288;63005;-62
2023/01/10 03:45:40;;;;;;;0.98;0.98;;;;;;;3.46;91.61;96944.84;29373;344;63009;-61
2023/01/10 03:46:20;;;;;;;0.60;0.60;;;;;;;3.48;91.58;96949.94;29371;266;64009;-60
2023/01/10 03:47:14;;;;;;;0.60;0.60;;;;;;;3.45;91.76;96953.94;29396;323;63009;-63
2023/01/10 03:47:50;;;;;;;0.60;0.60;;;;;;;3.40;92.18;96951.19;29394;297;64009;-64
2023/01/10 03:48:26;;;;;;;0.60;0.60;;;;;;;3.36;92.23;96955.41;29373;299;63009;-60
2023/01/10 03:49:02;;;;;;;0.60;0.60;;;;;;;3.36;92.55;96955.41;29373;202;63004;-61
2023/01/10 03:49:38;;;;;;;0.60;0.60;;;;;;;3.42;92.54;96956.31;29373;211;63008;-61
2023/01/10 03:50:22;;;;;;;0.60;0.60;;;;;;;3.42;92.42;96956.31;29373;202;63004;-66
2023/01/10 03:50:55;;;;;;;0.60;0.60;;;;;;;3.43;91.91;96955.25;29373;345;63016;-63
2023/01/10 03:51:28;;;;;;;0.60;0.60;;;;;;;3.40;92.15;96951.19;29373;242;63005;-60
2023/01/10 03:52:01;;;;;;;0.82;0.82;;;;;;;3.37;92.36;96957.84;29373;197;63009;-61
2023/01/10 03:52:35;;;;;;;0.60;0.60;;;;;;;3.35;92.62;96959.97;29373;281;63005;-62
2023/01/10 03:53:06;;;;;;;0.70;0.70;;;;;;;3.39;92.44;96959.47;29371;322;64013;-62
2023/01/10 03:53:39;;;;;;;0.90;0.77;;;;;;;3.40;92.59;96961.09;29373;237;63005;-66
2023/01/10 03:54:11;;;;;;;0.70;0.70;;;;;;;3.40;92.33;96961.09;29373;276;63009;-60
2023/01/10 03:54:44;;;;;;;0.70;0.70;;;;;;;3.39;92.77;96967.53;29395;240;63004;-61
2023/01/10 03:55:22;;;;;;;0.70;0.70;;;;;;;3.35;92.80;96965.31;29373;198;63009;-61
2023/01/10 03:55:53;;;;;;;0.70;0.70;;;;;;;3.31;93.28;96958.81;29373;236;63004;-60
2023/01/10 03:56:25;;;;;;;0.60;0.60;;;;;;;3.35;93.20;96959.16;29373;314;63009;-59
2023/01/10 03:56:56;;;;;;;0.60;0.60;;;;;;;3.35;93.21;96970.69;29373;238;63004;-62
2023/01/10 03:57:27;;;;;;;0.60;0.60;;;;;;;3.36;92.92;96966.94;29395;220;63008;-63
2023/01/10 03:57:58;;;;;;;0.70;0.70;;;;;;;3.35;93.05;96970.69;29395;222;63005;-59
2023/01/10 03:58:30;;;;;;;0.60;0.60;;;;;;;3.34;93.33;96969.06;29394;202;64014;-61
2023/01/10 03:59:02;;;;;;;0.60;0.60;;;;;;;3.33;93.08;96967.44;29395;243;63005;-59
2023/01/10 03:59:34;;;;;;;0.60;0.60;;;;;;;3.36;93.22;96972.31;29395;250;63009;-59
2023/01/10 04:00:06;;;;;;;0.60;0.60;;;;;;;3.34;92.97;96974.44;29395;225;63005;-59
2023/01/10 04:00:38;;;;;;;0.60;0.60;;;;;;;3.37;92.87;96968.56;29395;236;63009;-63
2023/01/10 04:01:09;;;;;;;0.60;0.60;;;;;;;3.43;92.43;96972.16;29395;227;63005;-58
2023/01/10 04:01:43;;;;;;;0.70;0.70;;;;;;;3.45;92.32;96969.22;29373;245;63009;-57
2023/01/10 04:02:15;;;;;;;0.60;0.60;;;;;;;3.43;92.49;96976.72;29373;323;63004;-57
2023/01/10 04:02:47;;;;;;;0.60;0.60;;;;;;;3.35;92.52;96973.38;29373;230;63009;-60
2023/01/10 04:03:18;;;;;;;0.60;0.60;;;;;;;3.36;93.12;96971.50;29395;203;63004;-61
2023/01/10 04:03:50;;;;;;;0.70;0.70;;;;;;;3.36;93.10;96966.94;29372;199;64013;-62
2023/01/10 04:04:21;;;;;;;0.60;0.60;;;;;;;3.35;92.68;96973.38;29394;198;64009;-69
2023/01/10 04:04:53;;;;;;;1.87;1.77;;;;;;;3.35;92.83;96981.41;29373;209;63008;-59
2023/01/10 04:05:25;;;;;;;0.60;0.60;;;;;;;3.35;92.79;96986.78;29394;234;64005;-59
2023/01/10 04:05:56;;;;;;;0.60;0.60;;;;;;;3.38;92.78;96980.13;29395;225;63009;-68
2023/01/10 04:06:27;;;;;;;0.60;0.60;;;;;;;3.32;92.75;96976.53;29395;216;63005;-59
2023/01/10 04:06:59;;;;;;;0.60;0.60;;;;;;;3.31;93.19;96979.47;29395;218;63009;-58
2023/01/10 04:07:30;;;;;;;0.60;0.60;;;;;;;3.31;93.24;96982.16;29395;204;63010;-59
2023/01/10 04:08:01;;;;;;;0.60;0.60;;;;;;;3.34;93.14;96979.78;29395;228;63009;-59
2023/01/10 04:08:33;;;;;;;0.60;0.60;;;;;;;3.35;93.32;96981.41;29395;235;63005;-62
2023/01/10 04:09:04;;;;;;;0.60;0.60;;;;;;;3.37;92.87;96990.03;29395;197;63009;-63
2023/01/10 04:09:35;;;;;;;0.70;0.70;;;;;;;3.45;92.33;96990.69;29394;198;64009;-62
2023/01/10 04:10:08;;;;;;;0.60;0.60;;;;;;;3.42;92.18;96991.19;29395;217;63009;-59
2023/01/10 04:10:39;;;;;;;0.60;0.60;;;;;;;3.36;92.48;96999.13;29395;202;63004;-59
2023/01/10 04:11:10;;;;;;;0.60;0.60;;;;;;;3.35;93.03;97002.06;29395;218;63026;-59
2023/01/10 04:11:41;;;;;;;0.60;0.60;;;;;;;3.36;92.44;96993.78;29395;218;63004;-57
2023/01/10 04:12:13;;;;;;;0.60;0.60;;;;;;;3.32;92.54;96995.31;29395;225;63008;-57
2023/01/10 04:12:44;;;;;;;0.60;0.60;;;;;;;3.37;92.67;97000.75;29395;196;63004;-64
2023/01/10 04:13:15;;;;;;;0.60;0.60;;;;;;;3.37;92.20;96986.53;29395;202;63009;-58
2023/01/10 04:13:47;;;;;;;0.60;0.60;;;;;;;3.35;91.96;96992.16;29395;243;63005;-58
2023/01/10 04:14:19;;;;;;;0.60;0.60;;;;;;;3.29;92.10;97003.84;29395;207;63020;-58
2023/01/10 04:14:51;;;;;;;0.60;0.60;;;;;;;3.34;92.63;97003.13;29394;202;64009;-61
2023/01/10 04:15:22;;;;;;;0.60;0.60;;;;;;;3.36;92.17;96998.31;29395;202;63009;-58
2023/01/10 04:15:53;;;;;;;0.57;0.57;;;;;;;3.36;91.97;96999.13;29395;226;63005;-62
2023/01/10 04:16:24;;;;;;;0.60;0.60;;;;;;;3.40;91.85;96995.97;29373;200;63009;-59
2023/01/10 04:16:56;;;;;;;0.60;0.60;;;;;;;3.43;91.81;96998.16;29395;202;63004;-61
2023/01/10 04:17:27;;;;;;;0.60;0.60;;;;;;;3.46;91.26;96997.69;29395;228;63009;-62
2023/01/10 04:17:58;;;;;;;0.60;0.60;;;;;;;3.49;91.40;97010.56;29395;230;63004;-57
2023/01/10 04:18:29;;;;;;;0.60;0.60;;;;;;;3.51;91.15;97005.78;29395;225;63004;-63
2023/01/10 04:19:00;;;;;;;0.60;0.60;;;;;;;3.50;90.64;97004.16;29395;204;63004;-58
2023/01/10 04:19:33;;;;;;;0.60;0.60;;;;;;;3.48;90.92;97006.25;29395;230;63008;-61
2023/01/10 04:20:06;;;;;;;0.60;0.60;;;;;;;3.51;90.93;97005.78;29394;240;64008;-68
2023/01/10 04:20:37;;;;;;;0.60;0.60;;;;;;;3.54;90.71;97005.28;29395;252;63009;-69
2023/01/10 04:21:08;;;;;;;0.60;0.60;;;;;;;3.52;90.54;97002.03;29395;225;63005;-59
2023/01/10 04:21:39;;;;;;;0.60;0.60;;;;;;;3.49;90.87;97014.06;29395;219;63009;-60